createdAt,value
2019-01-29T00:00:27.210Z,21.10
2019-01-29T00:02:28.796Z,21.10
2019-01-29T00:04:30.393Z,21.08
2019-01-29T00:06:31.993Z,21.06
2019-01-29T00:08:33.633Z,21.06
2019-01-29T00:10:35.234Z,21.03
2019-01-29T00:12:36.832Z,21.05
2019-01-29T00:14:38.429Z,21.07
2019-01-29T00:16:40.025Z,21.08
2019-01-29T00:18:41.625Z,21.14
2019-01-29T00:20:43.306Z,21.12
2019-01-29T00:22:44.907Z,21.10
2019-01-29T00:24:46.637Z,21.09
2019-01-29T00:26:48.388Z,21.08
2019-01-29T00:28:49.986Z,21.19
2019-01-29T00:30:51.597Z,21.27
2019-01-29T00:32:53.221Z,21.28
2019-01-29T00:34:54.817Z,21.26
2019-01-29T00:36:56.419Z,21.27
2019-01-29T00:38:58.028Z,21.25
2019-01-29T00:40:59.615Z,21.25
2019-01-29T00:43:01.259Z,21.22
2019-01-29T00:45:02.857Z,21.24
2019-01-29T00:47:04.477Z,21.22
2019-01-29T00:49:06.067Z,21.21
2019-01-29T00:51:07.693Z,21.19
2019-01-29T00:53:09.283Z,21.18
2019-01-29T00:55:10.913Z,21.12
2019-01-29T00:57:12.513Z,21.09
2019-01-29T00:59:14.100Z,21.06
2019-01-29T01:01:15.730Z,21.08
2019-01-29T01:03:17.378Z,21.11
2019-01-29T01:05:18.979Z,21.12
2019-01-29T01:07:20.595Z,21.11
2019-01-29T01:09:22.194Z,21.10
2019-01-29T01:11:23.793Z,21.09
2019-01-29T01:13:25.391Z,21.10
2019-01-29T01:15:27.024Z,21.09
2019-01-29T01:17:28.636Z,21.07
2019-01-29T01:19:30.248Z,21.07
2019-01-29T01:21:31.853Z,21.05
2019-01-29T01:23:33.458Z,21.04
2019-01-29T01:25:35.049Z,21.04
2019-01-29T01:27:36.683Z,21.03
2019-01-29T01:29:38.300Z,21.03
2019-01-29T01:31:39.902Z,21.03
2019-01-29T01:33:41.537Z,21.01
2019-01-29T01:35:43.143Z,20.99
2019-01-29T01:37:44.732Z,20.97
2019-01-29T01:39:46.316Z,21.00
2019-01-29T01:41:47.928Z,21.06
2019-01-29T01:43:49.535Z,21.07
2019-01-29T01:45:51.172Z,21.03
2019-01-29T01:47:52.769Z,21.00
2019-01-29T01:49:54.376Z,20.97
2019-01-29T01:51:55.989Z,20.96
2019-01-29T01:53:57.600Z,20.98
2019-01-29T01:55:59.204Z,20.99
2019-01-29T01:58:00.837Z,20.96
2019-01-29T02:00:02.422Z,20.95
2019-01-29T02:02:04.021Z,20.95
2019-01-29T02:04:05.628Z,20.95
2019-01-29T02:06:07.279Z,20.95
2019-01-29T02:08:08.864Z,20.97
2019-01-29T02:10:10.461Z,21.01
2019-01-29T02:12:12.053Z,21.03
2019-01-29T02:14:13.650Z,21.01
2019-01-29T02:16:15.294Z,21.01
2019-01-29T02:18:16.899Z,21.12
2019-01-29T02:20:18.498Z,21.17
2019-01-29T02:22:20.148Z,21.21
2019-01-29T02:24:21.765Z,21.20
2019-01-29T02:26:23.362Z,21.20
2019-01-29T02:28:24.997Z,21.18
2019-01-29T02:30:26.590Z,21.12
2019-01-29T02:32:28.190Z,21.06
2019-01-29T02:34:29.800Z,21.07
2019-01-29T02:36:31.403Z,21.11
2019-01-29T02:38:33.003Z,21.11
2019-01-29T02:40:34.602Z,20.91
2019-01-29T02:42:36.237Z,20.79
2019-01-29T02:44:37.833Z,20.84
2019-01-29T02:46:39.429Z,20.88
2019-01-29T02:48:41.031Z,21.01
2019-01-29T02:50:42.644Z,21.03
2019-01-29T02:52:44.256Z,21.04
2019-01-29T02:54:45.896Z,21.05
2019-01-29T02:56:47.505Z,20.83
2019-01-29T02:58:49.105Z,21.05
2019-01-29T03:00:50.749Z,21.07
2019-01-29T03:02:52.345Z,21.09
2019-01-29T03:04:53.962Z,21.09
2019-01-29T03:06:55.560Z,21.08
2019-01-29T03:08:57.168Z,21.08
2019-01-29T03:10:58.763Z,21.08
2019-01-29T03:13:00.406Z,21.09
2019-01-29T03:15:02.030Z,21.09
2019-01-29T03:17:03.634Z,21.10
2019-01-29T03:19:05.236Z,21.11
2019-01-29T03:21:06.848Z,21.08
2019-01-29T03:23:08.449Z,21.04
2019-01-29T03:25:10.062Z,20.98
2019-01-29T03:27:11.684Z,20.93
2019-01-29T03:29:13.286Z,20.93
2019-01-29T03:31:14.922Z,20.90
2019-01-29T03:33:16.907Z,20.91
2019-01-29T03:35:18.507Z,20.89
2019-01-29T03:37:20.186Z,20.92
2019-01-29T03:39:21.771Z,20.92
2019-01-29T03:41:23.431Z,21.14
2019-01-29T03:43:25.067Z,21.07
2019-01-29T03:45:26.707Z,20.94
2019-01-29T03:47:28.324Z,20.84
2019-01-29T03:49:29.918Z,20.79
2019-01-29T03:51:31.536Z,20.76
2019-01-29T03:53:38.195Z,20.92
2019-01-29T03:55:34.800Z,18.43
2019-01-29T03:57:36.397Z,17.78
2019-01-29T03:59:37.983Z,18.82
2019-01-29T04:01:39.621Z,19.61
2019-01-29T04:03:41.223Z,20.06
2019-01-29T04:05:42.819Z,20.30
2019-01-29T04:07:44.459Z,20.47
2019-01-29T04:09:46.043Z,20.61
2019-01-29T04:11:47.643Z,20.72
2019-01-29T04:13:49.242Z,20.84
2019-01-29T04:15:50.847Z,20.95
2019-01-29T04:17:52.466Z,20.99
2019-01-29T04:19:54.089Z,21.10
2019-01-29T04:21:55.686Z,21.13
2019-01-29T04:23:57.282Z,21.15
2019-01-29T04:25:58.909Z,21.19
2019-01-29T04:28:00.502Z,21.20
2019-01-29T04:30:02.097Z,21.23
2019-01-29T04:32:03.730Z,21.21
2019-01-29T04:34:05.713Z,21.17
2019-01-29T04:36:07.333Z,21.18
2019-01-29T04:38:08.963Z,21.17
2019-01-29T04:40:10.555Z,21.13
2019-01-29T04:42:12.179Z,21.07
2019-01-29T04:44:13.779Z,21.04
2019-01-29T04:46:15.379Z,21.01
2019-01-29T04:48:17.012Z,20.96
2019-01-29T04:50:18.596Z,20.92
2019-01-29T04:52:20.184Z,20.86
2019-01-29T04:54:21.806Z,20.84
2019-01-29T04:56:23.414Z,20.60
2019-01-29T04:58:25.008Z,20.76
2019-01-29T05:00:26.601Z,20.73
2019-01-29T05:02:28.261Z,20.69
2019-01-29T05:04:29.857Z,20.66
2019-01-29T05:06:31.457Z,20.61
2019-01-29T05:08:33.055Z,20.55
2019-01-29T05:10:34.658Z,20.48
2019-01-29T05:12:36.260Z,20.45
2019-01-29T05:14:37.893Z,20.37
2019-01-29T05:16:39.486Z,20.32
2019-01-29T05:18:41.080Z,20.28
2019-01-29T05:20:42.721Z,20.20
2019-01-29T05:22:44.317Z,20.16
2019-01-29T05:24:45.913Z,20.15
2019-01-29T05:26:47.583Z,20.13
2019-01-29T05:28:49.190Z,20.14
2019-01-29T05:30:50.790Z,20.15
2019-01-29T05:32:52.412Z,20.17
2019-01-29T05:34:54.027Z,20.23
2019-01-29T05:36:55.641Z,20.27
2019-01-29T05:38:57.257Z,20.33
2019-01-29T05:40:58.850Z,20.39
2019-01-29T05:43:00.445Z,20.46
2019-01-29T05:45:02.080Z,20.53
2019-01-29T05:47:03.717Z,20.60
2019-01-29T05:49:05.310Z,20.67
2019-01-29T05:51:06.916Z,20.72
2019-01-29T05:53:08.537Z,20.78
2019-01-29T05:55:10.149Z,20.81
2019-01-29T05:57:11.778Z,20.85
2019-01-29T05:59:13.388Z,20.91
2019-01-29T06:01:14.995Z,20.94
2019-01-29T06:03:16.603Z,20.96
2019-01-29T06:05:18.259Z,20.96
2019-01-29T06:07:19.858Z,20.97
2019-01-29T06:09:21.457Z,20.98
2019-01-29T06:11:23.066Z,20.97
2019-01-29T06:13:24.662Z,20.94
2019-01-29T06:15:26.263Z,20.90
2019-01-29T06:17:27.895Z,20.88
2019-01-29T06:19:29.505Z,20.86
2019-01-29T06:21:31.252Z,20.82
2019-01-29T06:23:32.846Z,20.78
2019-01-29T06:25:34.442Z,20.76
2019-01-29T06:27:36.052Z,20.74
2019-01-29T06:29:37.645Z,20.70
2019-01-29T06:31:39.251Z,20.67
2019-01-29T06:33:40.864Z,20.63
2019-01-29T06:35:42.461Z,20.62
2019-01-29T06:37:44.057Z,20.58
2019-01-29T06:39:45.693Z,20.56
2019-01-29T06:41:47.299Z,20.55
2019-01-29T06:43:48.902Z,20.53
2019-01-29T06:45:50.502Z,20.49
2019-01-29T06:47:52.102Z,20.48
2019-01-29T06:49:53.716Z,20.47
2019-01-29T06:51:55.324Z,20.45
2019-01-29T06:53:56.911Z,20.42
2019-01-29T06:55:58.537Z,20.40
2019-01-29T06:58:00.167Z,20.41
2019-01-29T07:00:01.772Z,20.41
2019-01-29T07:02:03.382Z,20.40
2019-01-29T07:04:04.995Z,20.44
2019-01-29T07:06:06.589Z,20.43
2019-01-29T07:08:08.200Z,20.45
2019-01-29T07:10:09.793Z,20.48
2019-01-29T07:12:11.386Z,20.54
2019-01-29T07:14:12.999Z,20.60
2019-01-29T07:16:19.313Z,20.65
2019-01-29T07:18:26.509Z,20.72
2019-01-29T07:20:28.120Z,20.79
2019-01-29T07:22:29.707Z,20.82
2019-01-29T07:24:31.310Z,20.86
2019-01-29T07:26:32.920Z,20.89
2019-01-29T07:28:34.517Z,20.89
2019-01-29T07:30:36.158Z,20.91
2019-01-29T07:32:37.757Z,20.92
2019-01-29T07:34:39.339Z,20.93
2019-01-29T07:36:40.925Z,20.92
2019-01-29T07:38:42.536Z,20.90
2019-01-29T07:40:44.157Z,20.87
2019-01-29T07:42:45.766Z,20.84
2019-01-29T07:44:47.361Z,20.80
2019-01-29T07:46:48.953Z,20.79
2019-01-29T07:48:50.537Z,20.75
2019-01-29T07:50:52.137Z,20.74
2019-01-29T07:52:53.842Z,20.69
2019-01-29T07:54:55.452Z,20.67
2019-01-29T07:56:57.049Z,20.65
2019-01-29T07:58:58.655Z,20.63
2019-01-29T08:01:00.254Z,20.61
2019-01-29T08:03:01.888Z,20.59
2019-01-29T08:05:03.497Z,20.55
2019-01-29T08:07:05.093Z,20.53
2019-01-29T08:09:06.680Z,20.50
2019-01-29T08:11:08.273Z,20.48
2019-01-29T08:13:09.884Z,20.46
2019-01-29T08:15:11.496Z,20.46
2019-01-29T08:17:13.117Z,20.45
2019-01-29T08:19:14.709Z,20.46
2019-01-29T08:21:16.319Z,20.46
2019-01-29T08:23:17.904Z,20.46
2019-01-29T08:25:19.511Z,20.48
2019-01-29T08:27:21.106Z,20.50
2019-01-29T08:29:22.702Z,20.53
2019-01-29T08:31:24.293Z,20.56
2019-01-29T08:33:25.900Z,20.61
2019-01-29T08:35:27.507Z,20.68
2019-01-29T08:37:29.106Z,20.73
2019-01-29T08:39:30.715Z,20.79
2019-01-29T08:41:32.339Z,20.83
2019-01-29T08:43:33.952Z,20.89
2019-01-29T08:45:35.568Z,20.92
2019-01-29T08:47:37.190Z,20.97
2019-01-29T08:49:38.793Z,20.99
2019-01-29T08:51:40.390Z,20.99
2019-01-29T08:53:41.975Z,21.00
2019-01-29T08:55:43.560Z,21.00
2019-01-29T08:57:45.155Z,21.00
2019-01-29T08:59:46.749Z,20.96
2019-01-29T09:01:49.198Z,20.94
2019-01-29T09:03:50.784Z,20.91
2019-01-29T09:05:52.382Z,20.90
2019-01-29T09:07:56.582Z,20.87
2019-01-29T09:09:58.182Z,20.84
2019-01-29T09:11:59.812Z,20.82
2019-01-29T09:14:01.434Z,20.79
2019-01-29T09:16:03.033Z,20.77
2019-01-29T09:18:04.670Z,20.75
2019-01-29T09:20:06.265Z,20.74
2019-01-29T09:22:07.857Z,20.76
2019-01-29T09:24:09.518Z,20.79
2019-01-29T09:26:11.132Z,20.78
2019-01-29T09:28:18.386Z,20.77
2019-01-29T09:30:14.455Z,20.71
2019-01-29T09:32:16.072Z,20.69
2019-01-29T09:34:18.214Z,20.67
2019-01-29T09:36:19.819Z,20.65
2019-01-29T09:38:21.467Z,20.68
2019-01-29T09:40:23.071Z,20.68
2019-01-29T09:42:25.200Z,20.70
2019-01-29T09:44:26.441Z,20.71
2019-01-29T09:46:28.034Z,20.73
2019-01-29T09:48:29.675Z,20.73
2019-01-29T09:50:31.362Z,20.73
2019-01-29T09:52:32.994Z,20.73
2019-01-29T09:54:34.590Z,20.72
2019-01-29T09:56:36.195Z,20.72
2019-01-29T09:58:37.818Z,20.74
2019-01-29T10:00:39.413Z,20.76
2019-01-29T10:02:41.002Z,20.82
2019-01-29T10:04:42.597Z,20.85
2019-01-29T10:06:44.200Z,20.86
2019-01-29T10:08:45.794Z,20.91
2019-01-29T10:10:47.426Z,20.98
2019-01-29T10:12:49.030Z,21.07
2019-01-29T10:14:50.616Z,21.07
2019-01-29T10:16:52.223Z,21.03
2019-01-29T10:18:53.825Z,21.00
2019-01-29T10:20:55.426Z,20.96
2019-01-29T10:22:57.050Z,20.95
2019-01-29T10:24:58.650Z,20.89
2019-01-29T10:27:00.245Z,20.91
2019-01-29T10:29:01.841Z,20.86
2019-01-29T10:31:03.433Z,20.83
2019-01-29T10:33:05.083Z,20.79
2019-01-29T10:35:06.695Z,20.77
2019-01-29T10:37:08.305Z,20.75
2019-01-29T10:39:09.901Z,20.74
2019-01-29T10:41:11.512Z,20.71
2019-01-29T10:43:13.105Z,20.71
2019-01-29T10:45:14.737Z,20.69
2019-01-29T10:47:16.505Z,20.50
2019-01-29T10:49:18.128Z,20.59
2019-01-29T10:51:19.726Z,20.57
2019-01-29T10:53:21.368Z,20.56
2019-01-29T10:55:22.966Z,20.57
2019-01-29T10:57:24.563Z,20.55
2019-01-29T10:59:26.184Z,20.53
2019-01-29T11:01:27.791Z,20.50
2019-01-29T11:03:29.372Z,20.48
2019-01-29T11:05:31.098Z,20.53
2019-01-29T11:07:32.663Z,20.54
2019-01-29T11:09:34.258Z,20.54
2019-01-29T11:11:35.899Z,20.54
2019-01-29T11:13:37.512Z,20.61
2019-01-29T11:15:39.140Z,20.63
2019-01-29T11:17:40.769Z,20.64
2019-01-29T11:19:42.352Z,20.68
2019-01-29T11:21:43.946Z,20.75
2019-01-29T11:23:46.045Z,20.81
2019-01-29T11:25:55.427Z,20.87
2019-01-29T11:27:49.408Z,20.94
2019-01-29T11:29:51.075Z,20.98
2019-01-29T11:31:52.688Z,21.01
2019-01-29T11:33:54.280Z,21.01
2019-01-29T11:35:55.933Z,21.01
2019-01-29T11:37:57.521Z,21.03
2019-01-29T11:39:59.127Z,21.02
2019-01-29T11:42:00.765Z,21.03
2019-01-29T11:44:02.375Z,21.01
2019-01-29T11:46:04.036Z,20.98
2019-01-29T11:48:05.639Z,20.97
2019-01-29T11:50:07.308Z,20.96
2019-01-29T11:52:08.915Z,20.94
2019-01-29T11:54:10.524Z,20.94
2019-01-29T11:56:12.135Z,20.92
2019-01-29T11:58:13.767Z,20.89
2019-01-29T12:00:15.357Z,20.86
2019-01-29T12:02:16.977Z,20.83
2019-01-29T12:04:18.573Z,20.79
2019-01-29T12:06:20.183Z,20.76
2019-01-29T12:08:21.778Z,20.73
2019-01-29T12:10:23.418Z,20.69
2019-01-29T12:12:25.013Z,20.70
2019-01-29T12:14:26.622Z,20.68
2019-01-29T12:16:28.223Z,20.65
2019-01-29T12:18:29.871Z,20.63
2019-01-29T12:20:31.483Z,20.62
2019-01-29T12:22:33.096Z,20.61
2019-01-29T12:24:34.780Z,20.58
2019-01-29T12:26:36.382Z,20.59
2019-01-29T12:28:37.991Z,20.59
2019-01-29T12:30:39.593Z,20.57
2019-01-29T12:32:41.190Z,20.56
2019-01-29T12:34:42.800Z,20.57
2019-01-29T12:36:44.411Z,20.57
2019-01-29T12:38:46.064Z,20.57
2019-01-29T12:40:47.666Z,20.59
2019-01-29T12:42:49.284Z,20.61
2019-01-29T12:44:50.940Z,20.66
2019-01-29T12:46:52.553Z,20.73
2019-01-29T12:48:54.167Z,20.78
2019-01-29T12:50:55.805Z,20.82
2019-01-29T12:52:59.950Z,20.64
2019-01-29T12:55:01.566Z,20.91
2019-01-29T12:57:03.229Z,20.93
2019-01-29T12:59:04.834Z,20.97
2019-01-29T13:01:06.473Z,21.00
2019-01-29T13:03:08.091Z,21.01
2019-01-29T13:05:09.721Z,21.02
2019-01-29T13:07:11.454Z,21.03
2019-01-29T13:09:13.055Z,21.00
2019-01-29T13:11:14.668Z,21.00
2019-01-29T13:13:16.319Z,20.98
2019-01-29T13:15:17.917Z,20.95
2019-01-29T13:17:19.510Z,20.93
2019-01-29T13:19:21.111Z,20.90
2019-01-29T13:21:22.715Z,20.86
2019-01-29T13:23:24.318Z,20.83
2019-01-29T13:25:26.005Z,20.81
2019-01-29T13:27:27.620Z,20.56
2019-01-29T13:29:29.318Z,20.73
2019-01-29T13:31:31.420Z,20.70
2019-01-29T13:33:33.056Z,20.69
2019-01-29T13:35:34.654Z,20.58
2019-01-29T13:37:36.292Z,20.62
2019-01-29T13:39:37.929Z,20.56
2019-01-29T13:41:39.533Z,20.52
2019-01-29T13:43:41.130Z,20.44
2019-01-29T13:45:42.745Z,20.40
2019-01-29T13:47:44.420Z,20.34
2019-01-29T13:49:46.035Z,20.28
2019-01-29T13:51:47.653Z,20.24
2019-01-29T13:53:49.292Z,20.20
2019-01-29T13:55:50.893Z,20.19
2019-01-29T13:57:52.489Z,20.19
2019-01-29T13:59:54.096Z,20.20
2019-01-29T14:01:57.674Z,20.26
2019-01-29T14:04:05.807Z,20.30
2019-01-29T14:05:59.061Z,20.37
2019-01-29T14:08:00.679Z,20.42
2019-01-29T14:10:02.277Z,20.50
2019-01-29T14:12:03.933Z,20.58
2019-01-29T14:14:05.530Z,20.65
2019-01-29T14:16:07.144Z,20.69
2019-01-29T14:18:08.949Z,20.75
2019-01-29T14:20:10.606Z,20.82
2019-01-29T14:22:12.241Z,20.90
2019-01-29T14:24:13.838Z,20.93
2019-01-29T14:26:15.451Z,20.93
2019-01-29T14:28:17.053Z,21.00
2019-01-29T14:30:18.694Z,21.00
2019-01-29T14:32:20.290Z,21.03
2019-01-29T14:34:21.930Z,21.04
2019-01-29T14:36:23.533Z,21.02
2019-01-29T14:38:25.120Z,20.88
2019-01-29T14:40:26.736Z,20.96
2019-01-29T14:42:28.334Z,21.12
2019-01-29T14:44:29.952Z,21.17
2019-01-29T14:46:31.549Z,21.14
2019-01-29T14:48:33.215Z,21.11
2019-01-29T14:50:34.853Z,21.14
2019-01-29T14:52:36.454Z,21.15
2019-01-29T14:54:38.049Z,21.12
2019-01-29T14:56:39.633Z,21.17
2019-01-29T14:58:41.278Z,21.17
2019-01-29T15:00:42.942Z,21.16
2019-01-29T15:02:44.613Z,21.12
2019-01-29T15:04:46.264Z,21.11
2019-01-29T15:06:47.903Z,21.06
2019-01-29T15:08:49.512Z,21.03
2019-01-29T15:10:51.182Z,21.04
2019-01-29T15:12:52.799Z,21.10
2019-01-29T15:14:54.460Z,21.32
2019-01-29T15:16:56.100Z,21.13
2019-01-29T15:18:58.436Z,20.98
2019-01-29T15:21:00.038Z,20.87
2019-01-29T15:23:01.647Z,20.79
2019-01-29T15:25:03.277Z,20.55
2019-01-29T15:27:05.973Z,20.56
2019-01-29T15:29:06.515Z,20.61
2019-01-29T15:31:08.152Z,20.61
2019-01-29T15:33:09.751Z,20.59
2019-01-29T15:35:11.363Z,20.60
2019-01-29T15:37:13.018Z,20.88
2019-01-29T15:39:14.675Z,21.21
2019-01-29T15:41:16.269Z,21.57
2019-01-29T15:43:17.865Z,21.75
2019-01-29T15:45:19.462Z,21.68
2019-01-29T15:47:21.068Z,21.95
2019-01-29T15:49:22.661Z,22.01
2019-01-29T15:51:24.297Z,22.08
2019-01-29T15:53:25.893Z,22.06
2019-01-29T15:55:27.490Z,22.18
2019-01-29T15:57:29.096Z,22.25
2019-01-29T15:59:30.694Z,22.18
2019-01-29T16:01:32.313Z,22.15
2019-01-29T16:03:33.913Z,22.05
2019-01-29T16:05:35.549Z,22.01
2019-01-29T16:07:37.148Z,22.17
2019-01-29T16:09:38.746Z,22.27
2019-01-29T16:11:40.385Z,22.28
2019-01-29T16:13:41.995Z,22.22
2019-01-29T16:15:43.581Z,22.27
2019-01-29T16:17:45.173Z,22.37
2019-01-29T16:19:46.769Z,22.43
2019-01-29T16:21:48.371Z,22.48
2019-01-29T16:23:50.020Z,22.87
2019-01-29T16:25:51.643Z,22.84
2019-01-29T16:27:53.242Z,22.60
2019-01-29T16:29:54.851Z,22.74
2019-01-29T16:31:56.463Z,22.95
2019-01-29T16:33:58.072Z,22.95
2019-01-29T16:35:59.716Z,22.98
2019-01-29T16:38:01.332Z,23.00
2019-01-29T16:40:02.940Z,23.10
2019-01-29T16:42:04.556Z,23.09
2019-01-29T16:44:06.204Z,23.27
2019-01-29T16:46:07.849Z,23.17
2019-01-29T16:48:09.461Z,23.14
2019-01-29T16:50:11.079Z,23.10
2019-01-29T16:52:12.690Z,23.13
2019-01-29T16:54:14.329Z,23.33
2019-01-29T16:56:15.989Z,23.32
2019-01-29T16:58:17.601Z,23.31
2019-01-29T17:00:19.197Z,23.33
2019-01-29T17:02:20.812Z,23.14
2019-01-29T17:04:22.400Z,23.06
2019-01-29T17:06:23.994Z,23.08
2019-01-29T17:08:25.640Z,23.18
2019-01-29T17:10:27.280Z,23.23
2019-01-29T17:12:28.889Z,23.28
2019-01-29T17:14:30.500Z,23.06
2019-01-29T17:16:32.156Z,23.00
2019-01-29T17:18:33.767Z,22.86
2019-01-29T17:20:35.365Z,22.80
2019-01-29T17:22:36.961Z,22.68
2019-01-29T17:24:38.562Z,22.27
2019-01-29T17:26:40.176Z,22.29
2019-01-29T17:28:41.802Z,22.80
2019-01-29T17:30:43.409Z,23.02
2019-01-29T17:32:44.995Z,23.15
2019-01-29T17:34:46.595Z,23.26
2019-01-29T17:36:48.204Z,23.22
2019-01-29T17:38:49.937Z,23.26
2019-01-29T17:40:51.538Z,23.49
2019-01-29T17:42:53.168Z,23.44
2019-01-29T17:44:54.780Z,23.42
2019-01-29T17:46:56.377Z,23.34
2019-01-29T17:48:57.980Z,23.38
2019-01-29T17:50:59.699Z,23.41
2019-01-29T17:53:01.375Z,23.43
2019-01-29T17:55:03.008Z,23.44
2019-01-29T17:57:04.594Z,23.45
2019-01-29T17:59:06.200Z,23.42
2019-01-29T18:01:07.826Z,23.30
2019-01-29T18:03:09.444Z,23.52
2019-01-29T18:05:11.055Z,23.53
2019-01-29T18:07:12.667Z,23.54
2019-01-29T18:09:14.271Z,23.51
2019-01-29T18:11:15.894Z,23.45
2019-01-29T18:13:17.489Z,23.33
2019-01-29T18:15:19.120Z,23.39
2019-01-29T18:17:20.715Z,23.43
2019-01-29T18:19:22.299Z,23.38
2019-01-29T18:21:23.949Z,23.42
2019-01-29T18:23:25.546Z,23.34
2019-01-29T18:25:27.142Z,23.12
2019-01-29T18:27:28.737Z,23.14
2019-01-29T18:29:30.333Z,23.16
2019-01-29T18:31:31.954Z,22.99
2019-01-29T18:33:33.590Z,23.34
2019-01-29T18:35:35.186Z,22.87
2019-01-29T18:37:36.795Z,22.65
2019-01-29T18:39:38.414Z,22.87
2019-01-29T18:41:40.030Z,23.18
2019-01-29T18:43:41.633Z,23.26
2019-01-29T18:45:43.243Z,23.30
2019-01-29T18:47:44.889Z,23.28
2019-01-29T18:49:46.494Z,23.32
2019-01-29T18:51:48.099Z,23.20
2019-01-29T18:53:49.714Z,23.15
2019-01-29T18:55:51.314Z,23.22
2019-01-29T18:57:53.199Z,23.61
2019-01-29T18:59:54.900Z,23.61
2019-01-29T19:01:56.561Z,23.49
2019-01-29T19:03:58.161Z,23.68
2019-01-29T19:05:59.760Z,23.38
2019-01-29T19:08:01.396Z,23.60
2019-01-29T19:10:03.015Z,23.24
2019-01-29T19:12:04.668Z,23.25
2019-01-29T19:14:06.251Z,23.51
2019-01-29T19:16:07.887Z,23.48
2019-01-29T19:18:09.472Z,23.48
2019-01-29T19:20:11.066Z,23.48
2019-01-29T19:22:12.691Z,23.63
2019-01-29T19:24:14.309Z,23.70
2019-01-29T19:26:15.911Z,23.60
2019-01-29T19:28:22.248Z,23.54
2019-01-29T19:30:19.239Z,23.70
2019-01-29T19:32:20.838Z,23.81
2019-01-29T19:34:22.433Z,23.53
2019-01-29T19:36:24.077Z,23.68
2019-01-29T19:38:25.823Z,23.16
2019-01-29T19:40:27.595Z,22.92
2019-01-29T19:42:29.302Z,22.79
2019-01-29T19:44:30.920Z,22.55
2019-01-29T19:46:32.517Z,22.65
2019-01-29T19:48:34.165Z,22.93
2019-01-29T19:50:35.775Z,23.18
2019-01-29T19:52:37.370Z,23.16
2019-01-29T19:54:38.980Z,23.30
2019-01-29T19:56:40.583Z,23.41
2019-01-29T19:58:42.181Z,23.47
2019-01-29T20:00:43.802Z,23.40
2019-01-29T20:02:45.468Z,23.49
2019-01-29T20:04:47.055Z,23.41
2019-01-29T20:06:48.650Z,23.24
2019-01-29T20:08:50.318Z,23.25
2019-01-29T20:10:51.913Z,23.18
2019-01-29T20:12:53.503Z,23.14
2019-01-29T20:14:55.119Z,23.21
2019-01-29T20:16:56.820Z,23.32
2019-01-29T20:18:58.431Z,23.78
2019-01-29T20:21:00.188Z,23.56
2019-01-29T20:23:08.206Z,23.26
2019-01-29T20:25:03.444Z,22.93
2019-01-29T20:27:05.056Z,23.23
2019-01-29T20:29:06.662Z,23.07
2019-01-29T20:31:08.252Z,23.00
2019-01-29T20:33:09.891Z,22.94
2019-01-29T20:35:11.511Z,22.93
2019-01-29T20:37:13.128Z,22.94
2019-01-29T20:39:14.729Z,22.97
2019-01-29T20:41:16.349Z,22.89
2019-01-29T20:43:17.973Z,22.61
2019-01-29T20:45:19.575Z,22.43
2019-01-29T20:47:21.183Z,22.55
2019-01-29T20:49:22.782Z,22.65
2019-01-29T20:51:24.373Z,22.75
2019-01-29T20:53:25.976Z,22.91
2019-01-29T20:55:27.602Z,23.03
2019-01-29T20:57:29.197Z,23.09
2019-01-29T20:59:30.839Z,23.12
2019-01-29T21:01:32.444Z,23.17
2019-01-29T21:03:34.175Z,23.32
2019-01-29T21:05:35.769Z,23.42
2019-01-29T21:07:37.352Z,23.46
2019-01-29T21:09:38.959Z,23.48
2019-01-29T21:11:40.550Z,23.52
2019-01-29T21:13:42.160Z,23.39
2019-01-29T21:15:43.768Z,23.65
2019-01-29T21:17:45.412Z,23.52
2019-01-29T21:19:47.009Z,23.46
2019-01-29T21:21:48.606Z,23.42
2019-01-29T21:23:50.229Z,23.39
2019-01-29T21:25:51.812Z,23.33
2019-01-29T21:27:53.424Z,23.30
2019-01-29T21:29:55.022Z,23.26
2019-01-29T21:31:56.672Z,23.22
2019-01-29T21:33:58.288Z,23.15
2019-01-29T21:35:59.927Z,22.82
2019-01-29T21:38:01.532Z,17.72
2019-01-29T21:40:03.163Z,15.95
2019-01-29T21:42:04.809Z,15.10
2019-01-29T21:44:06.424Z,14.51
2019-01-29T21:46:08.018Z,17.24
2019-01-29T21:48:09.638Z,19.13
2019-01-29T21:50:11.763Z,19.88
2019-01-29T21:52:12.900Z,20.23
2019-01-29T21:54:14.513Z,20.51
2019-01-29T21:56:16.194Z,20.76
2019-01-29T21:58:17.779Z,20.99
2019-01-29T22:00:19.379Z,21.24
2019-01-29T22:02:20.972Z,21.44
2019-01-29T22:04:22.556Z,21.63
2019-01-29T22:06:24.187Z,21.74
2019-01-29T22:08:25.804Z,21.85
2019-01-29T22:10:27.401Z,21.93
2019-01-29T22:12:28.983Z,22.00
2019-01-29T22:14:30.578Z,22.03
2019-01-29T22:16:32.169Z,22.05
2019-01-29T22:18:33.768Z,22.11
2019-01-29T22:20:35.362Z,22.15
2019-01-29T22:22:36.987Z,22.19
2019-01-29T22:24:38.679Z,22.18
2019-01-29T22:26:40.342Z,22.22
2019-01-29T22:28:41.947Z,22.22
2019-01-29T22:30:43.592Z,22.17
2019-01-29T22:32:45.203Z,22.15
2019-01-29T22:34:47.312Z,22.11
2019-01-29T22:36:48.967Z,22.05
2019-01-29T22:38:50.561Z,22.01
2019-01-29T22:40:52.169Z,21.95
2019-01-29T22:42:53.902Z,21.89
2019-01-29T22:44:55.458Z,21.84
2019-01-29T22:46:57.053Z,21.79
2019-01-29T22:48:58.701Z,21.73
2019-01-29T22:51:00.302Z,21.68
2019-01-29T22:53:01.897Z,21.63
2019-01-29T22:55:03.532Z,21.59
2019-01-29T22:57:05.132Z,21.58
2019-01-29T22:59:06.729Z,21.54
2019-01-29T23:01:08.367Z,21.52
2019-01-29T23:03:09.953Z,21.49
2019-01-29T23:05:11.564Z,21.49
2019-01-29T23:07:13.216Z,21.47
2019-01-29T23:09:14.827Z,21.43
2019-01-29T23:11:16.421Z,21.39
2019-01-29T23:13:18.014Z,21.45
2019-01-29T23:15:19.627Z,21.45
2019-01-29T23:17:21.231Z,21.46
2019-01-29T23:19:22.880Z,21.48
2019-01-29T23:21:24.480Z,21.50
2019-01-29T23:23:26.073Z,21.50
2019-01-29T23:25:27.675Z,21.46
2019-01-29T23:27:29.279Z,21.43
2019-01-29T23:29:30.885Z,21.42
2019-01-29T23:31:32.521Z,21.40
2019-01-29T23:33:34.109Z,21.38
2019-01-29T23:35:35.720Z,21.38
2019-01-29T23:37:37.362Z,21.39
2019-01-29T23:39:38.958Z,21.38
2019-01-29T23:41:40.540Z,21.40
2019-01-29T23:43:42.122Z,21.37
2019-01-29T23:45:43.731Z,21.40
2019-01-29T23:47:45.353Z,21.44
2019-01-29T23:49:46.980Z,21.45
2019-01-29T23:51:48.617Z,21.44
2019-01-29T23:53:50.228Z,21.48
2019-01-29T23:55:51.844Z,21.50
2019-01-29T23:57:53.432Z,21.54
2019-01-29T23:59:55.065Z,21.60
